createdAt,value
2023-03-06T00:00:39.051Z,59.11
2023-03-06T00:03:10.027Z,59.54
2023-03-06T00:05:43.138Z,60.18
2023-03-06T00:08:13.516Z,60.45
2023-03-06T00:10:44.628Z,60.38
2023-03-06T00:13:16.316Z,60.52
2023-03-06T00:15:46.414Z,60.66
2023-03-06T00:18:16.767Z,60.42
2023-03-06T00:20:49.583Z,60.40
2023-03-06T00:23:19.894Z,60.05
2023-03-06T00:25:49.941Z,60.00
2023-03-06T00:28:19.977Z,60.41
2023-03-06T00:30:51.136Z,61.28
2023-03-06T00:33:21.267Z,61.71
2023-03-06T00:35:53.984Z,62.42
2023-03-06T00:38:25.445Z,62.68
2023-03-06T00:40:55.468Z,63.13
2023-03-06T00:43:25.650Z,63.61
2023-03-06T00:45:55.656Z,63.96
2023-03-06T00:48:25.749Z,64.11
2023-03-06T00:50:58.351Z,64.29
2023-03-06T00:53:28.706Z,64.17
2023-03-06T00:55:58.805Z,64.43
2023-03-06T00:58:29.194Z,64.61
2023-03-06T01:01:00.361Z,64.51
2023-03-06T01:03:30.531Z,64.05
2023-03-06T01:06:03.500Z,63.84
2023-03-06T01:08:33.679Z,63.66
2023-03-06T01:11:03.830Z,63.69
2023-03-06T01:13:34.250Z,63.49
2023-03-06T01:16:12.079Z,63.70
2023-03-06T01:18:42.708Z,63.74
2023-03-06T01:21:16.453Z,63.72
2023-03-06T01:23:47.560Z,63.66
2023-03-06T01:26:17.975Z,63.97
2023-03-06T01:28:48.327Z,64.22
2023-03-06T01:31:18.464Z,64.62
2023-03-06T01:33:48.477Z,64.43
2023-03-06T01:36:24.449Z,64.58
2023-03-06T01:38:54.524Z,64.56
2023-03-06T01:41:24.797Z,64.72
2023-03-06T01:43:55.044Z,65.22
2023-03-06T01:46:33.468Z,65.44
2023-03-06T01:49:07.224Z,65.79
2023-03-06T01:51:42.865Z,65.89
2023-03-06T01:54:17.875Z,66.21
2023-03-06T01:56:51.801Z,66.22
2023-03-06T01:59:23.233Z,65.80
2023-03-06T02:01:54.264Z,65.82
2023-03-06T02:04:24.605Z,65.48
2023-03-06T02:06:58.762Z,65.49
2023-03-06T02:09:31.071Z,65.88
2023-03-06T02:12:02.348Z,65.89
2023-03-06T02:14:33.013Z,66.38
2023-03-06T02:17:03.188Z,66.50
2023-03-06T02:19:40.699Z,66.91
2023-03-06T02:22:13.925Z,66.96
2023-03-06T02:24:51.569Z,67.10
2023-03-06T02:27:26.899Z,66.83
2023-03-06T02:29:59.173Z,66.70
2023-03-06T02:32:30.215Z,66.94
2023-03-06T02:35:00.910Z,67.08
2023-03-06T02:37:31.962Z,67.27
2023-03-06T02:40:14.758Z,67.49
2023-03-06T02:42:53.488Z,67.51
2023-03-06T02:45:29.232Z,67.39
2023-03-06T02:47:59.479Z,67.25
2023-03-06T02:50:32.211Z,67.04
2023-03-06T02:53:04.837Z,66.93
2023-03-06T02:55:35.336Z,66.85
2023-03-06T02:58:08.962Z,66.74
2023-03-06T03:00:40.216Z,66.59
2023-03-06T03:03:13.149Z,66.78
2023-03-06T03:05:43.277Z,66.99
2023-03-06T03:08:20.030Z,67.07
2023-03-06T03:10:52.168Z,67.36
2023-03-06T03:13:25.942Z,67.35
2023-03-06T03:16:02.829Z,67.44
2023-03-06T03:18:33.023Z,67.31
2023-03-06T03:21:03.343Z,67.10
2023-03-06T03:23:33.603Z,67.05
2023-03-06T03:26:10.083Z,66.94
2023-03-06T03:28:45.894Z,66.95
2023-03-06T03:31:19.437Z,66.74
2023-03-06T03:33:49.923Z,66.91
2023-03-06T03:36:21.672Z,66.86
2023-03-06T03:38:52.496Z,66.73
2023-03-06T03:41:23.038Z,66.82
2023-03-06T03:43:57.072Z,66.78
2023-03-06T03:46:27.978Z,66.63
2023-03-06T03:48:59.834Z,66.32
2023-03-06T03:51:30.460Z,66.33
2023-03-06T03:54:01.747Z,66.14
2023-03-06T03:56:40.374Z,66.15
2023-03-06T03:59:18.216Z,65.75
2023-03-06T04:01:59.559Z,65.60
2023-03-06T04:04:30.484Z,65.36
2023-03-06T04:07:00.956Z,65.01
2023-03-06T04:09:31.028Z,65.05
2023-03-06T04:12:01.681Z,64.95
2023-03-06T04:14:35.094Z,64.92
2023-03-06T04:17:05.678Z,64.74
2023-03-06T04:19:36.595Z,64.86
2023-03-06T04:22:06.626Z,64.87
2023-03-06T04:24:39.115Z,64.65
2023-03-06T04:27:09.606Z,64.50
2023-03-06T04:29:42.456Z,64.59
2023-03-06T04:32:12.911Z,64.46
2023-03-06T04:34:43.334Z,64.15
2023-03-06T04:37:22.224Z,63.87
2023-03-06T04:39:52.871Z,64.00
2023-03-06T04:42:23.184Z,64.01
2023-03-06T04:44:55.804Z,63.84
2023-03-06T04:47:25.817Z,63.54
2023-03-06T04:49:55.779Z,63.72
2023-03-06T04:52:25.782Z,63.75
2023-03-06T04:54:55.869Z,63.53
2023-03-06T04:57:26.056Z,63.28
2023-03-06T04:59:58.834Z,63.54
2023-03-06T05:02:28.890Z,63.40
2023-03-06T05:04:59.049Z,63.42
2023-03-06T05:07:29.250Z,63.57
2023-03-06T05:10:00.559Z,63.47
2023-03-06T05:12:30.563Z,63.15
2023-03-06T05:15:03.513Z,63.51
2023-03-06T05:17:33.572Z,63.16
2023-03-06T05:20:06.234Z,63.17
2023-03-06T05:22:36.519Z,63.10
2023-03-06T05:25:07.021Z,62.95
2023-03-06T05:27:37.870Z,62.94
2023-03-06T05:30:13.239Z,62.89
2023-03-06T05:32:43.390Z,62.69
2023-03-06T05:35:20.046Z,62.85
2023-03-06T05:37:50.253Z,63.01
2023-03-06T05:40:21.465Z,62.73
2023-03-06T05:42:53.466Z,62.83
2023-03-06T05:45:26.617Z,62.73
2023-03-06T05:47:56.658Z,62.80
2023-03-06T05:50:26.596Z,62.94
2023-03-06T05:52:56.662Z,63.00
2023-03-06T05:55:26.728Z,62.96
2023-03-06T05:57:57.014Z,62.80
2023-03-06T06:00:30.034Z,62.62
2023-03-06T06:03:03.554Z,62.43
2023-03-06T06:05:33.561Z,62.53
2023-03-06T06:08:03.683Z,62.38
2023-03-06T06:10:33.916Z,62.52
2023-03-06T06:13:04.479Z,62.56
2023-03-06T06:15:37.378Z,62.32
2023-03-06T06:18:07.532Z,62.58
2023-03-06T06:20:39.610Z,62.39
2023-03-06T06:23:09.733Z,62.47
2023-03-06T06:25:40.399Z,62.33
2023-03-06T06:28:12.511Z,62.22
2023-03-06T06:30:55.641Z,62.03
2023-03-06T06:33:36.368Z,61.66
2023-03-06T06:36:17.710Z,61.54
2023-03-06T06:38:48.295Z,61.52
2023-03-06T06:41:42.343Z,61.55
2023-03-06T06:44:23.844Z,61.31
2023-03-06T06:47:21.727Z,61.67
2023-03-06T06:49:46.913Z,61.46
2023-03-06T06:52:17.412Z,61.62
2023-03-06T06:54:47.604Z,61.46
2023-03-06T06:57:18.578Z,61.62
2023-03-06T06:59:49.240Z,61.45
2023-03-06T07:02:22.870Z,61.50
2023-03-06T07:05:03.762Z,61.12
2023-03-06T07:07:34.659Z,60.91
2023-03-06T07:10:05.657Z,61.06
2023-03-06T07:12:36.043Z,61.21
2023-03-06T07:15:08.146Z,60.89
2023-03-06T07:17:40.804Z,60.99
2023-03-06T07:20:12.748Z,61.04
2023-03-06T07:22:50.764Z,60.91
2023-03-06T07:25:22.583Z,60.65
2023-03-06T07:27:55.542Z,60.51
2023-03-06T07:30:26.786Z,60.33
2023-03-06T07:33:00.794Z,60.66
2023-03-06T07:35:30.958Z,60.48
2023-03-06T07:38:00.953Z,60.54
2023-03-06T07:40:31.171Z,60.47
2023-03-06T07:43:16.832Z,60.47
2023-03-06T07:46:02.508Z,60.09
2023-03-06T07:48:35.381Z,59.86
2023-03-06T07:51:07.703Z,59.77
2023-03-06T07:53:38.436Z,59.75
2023-03-06T07:56:11.224Z,59.67
2023-03-06T07:58:43.278Z,59.58
2023-03-06T08:01:15.268Z,59.62
2023-03-06T08:03:49.163Z,59.54
2023-03-06T08:06:21.299Z,59.53
2023-03-06T08:08:52.546Z,59.40
2023-03-06T08:11:25.550Z,59.41
2023-03-06T08:13:58.090Z,59.55
2023-03-06T08:16:30.754Z,59.23
2023-03-06T08:19:03.363Z,59.21
2023-03-06T08:21:33.492Z,59.14
2023-03-06T08:24:03.617Z,58.96
2023-03-06T08:26:34.627Z,58.88
2023-03-06T08:29:05.458Z,58.71
2023-03-06T08:31:37.377Z,58.36
2023-03-06T08:34:11.918Z,58.13
2023-03-06T08:36:42.144Z,58.05
2023-03-06T08:39:13.153Z,57.88
2023-03-06T08:41:43.853Z,57.73
2023-03-06T08:44:14.790Z,57.24
2023-03-06T08:46:44.802Z,57.77
2023-03-06T08:49:17.817Z,57.75
2023-03-06T08:51:47.851Z,57.49
2023-03-06T08:54:18.052Z,56.99
2023-03-06T08:56:48.053Z,57.17
2023-03-06T08:59:18.328Z,57.03
2023-03-06T09:01:48.647Z,56.81
2023-03-06T09:04:21.485Z,56.92
2023-03-06T09:06:52.452Z,55.91
2023-03-06T09:09:23.517Z,55.39
2023-03-06T09:11:53.908Z,55.86
2023-03-06T09:14:24.019Z,56.04
2023-03-06T09:16:54.286Z,55.93
2023-03-06T09:19:26.961Z,56.09
2023-03-06T09:21:57.972Z,56.39
2023-03-06T09:24:28.182Z,56.15
2023-03-06T09:26:58.133Z,55.98
2023-03-06T09:29:28.284Z,57.99
2023-03-06T09:31:59.373Z,57.49
2023-03-06T09:34:32.118Z,57.01
2023-03-06T09:37:02.093Z,56.44
2023-03-06T09:39:32.242Z,55.40
2023-03-06T09:42:02.657Z,55.80
2023-03-06T09:44:34.987Z,57.55
2023-03-06T09:47:43.602Z,57.46
2023-03-06T09:50:25.460Z,57.49
2023-03-06T09:53:08.053Z,57.13
2023-03-06T09:55:41.614Z,56.05
2023-03-06T09:58:17.397Z,55.58
2023-03-06T10:00:56.902Z,54.75
2023-03-06T10:03:32.648Z,54.22
2023-03-06T10:06:12.439Z,53.85
2023-03-06T10:08:52.014Z,53.67
2023-03-06T10:11:29.132Z,53.18
2023-03-06T10:14:11.179Z,52.85
2023-03-06T10:16:41.521Z,53.10
2023-03-06T10:19:17.173Z,53.19
2023-03-06T10:21:59.244Z,52.96
2023-03-06T10:24:51.924Z,53.45
2023-03-06T10:27:32.805Z,53.56
2023-03-06T10:30:14.775Z,53.48
2023-03-06T10:32:55.175Z,53.57
2023-03-06T10:35:30.747Z,53.83
2023-03-06T10:38:19.748Z,53.95
2023-03-06T10:40:58.524Z,53.68
2023-03-06T10:43:29.072Z,53.84
2023-03-06T10:45:59.221Z,53.50
2023-03-06T10:48:32.845Z,53.57
2023-03-06T10:51:18.932Z,53.07
2023-03-06T10:53:57.196Z,52.59
2023-03-06T10:56:33.847Z,51.80
2023-03-06T10:59:17.201Z,52.56
2023-03-06T11:01:49.198Z,52.87
2023-03-06T11:04:26.676Z,51.35
2023-03-06T11:07:15.777Z,51.26
2023-03-06T11:10:01.849Z,50.39
2023-03-06T11:12:33.984Z,50.52
2023-03-06T11:15:24.086Z,49.80
2023-03-06T11:17:58.596Z,49.50
2023-03-06T11:20:44.904Z,50.11
2023-03-06T11:23:29.568Z,49.91
2023-03-06T11:26:08.982Z,49.49
2023-03-06T11:28:45.213Z,48.73
2023-03-06T11:31:20.058Z,48.84
2023-03-06T11:33:54.351Z,48.64
2023-03-06T11:36:31.580Z,49.75
2023-03-06T11:39:02.217Z,49.06
2023-03-06T11:41:45.672Z,49.37
2023-03-06T11:44:24.450Z,48.88
2023-03-06T11:47:04.406Z,49.39
2023-03-06T11:49:41.936Z,49.69
2023-03-06T11:52:21.915Z,50.51
2023-03-06T11:54:57.061Z,51.26
2023-03-06T11:57:38.411Z,51.90
2023-03-06T12:00:34.402Z,51.61
2023-03-06T12:03:36.635Z,51.75
2023-03-06T12:06:11.878Z,51.96
2023-03-06T12:08:50.222Z,51.64
2023-03-06T12:11:25.548Z,51.13
2023-03-06T12:14:18.415Z,51.41
2023-03-06T12:17:13.284Z,50.95
2023-03-06T12:19:55.123Z,51.33
2023-03-06T12:22:39.446Z,51.85
2023-03-06T12:25:36.578Z,50.87
2023-03-06T12:28:23.304Z,50.82
2023-03-06T12:31:14.376Z,50.14
2023-03-06T12:33:53.492Z,48.69
2023-03-06T12:36:38.310Z,48.39
2023-03-06T12:39:20.670Z,47.71
2023-03-06T12:42:21.451Z,46.72
2023-03-06T12:45:19.632Z,46.57
2023-03-06T12:47:57.218Z,45.62
2023-03-06T12:50:29.580Z,45.74
2023-03-06T12:53:03.675Z,43.64
2023-03-06T12:55:42.011Z,43.57
2023-03-06T12:58:41.781Z,44.54
2023-03-06T13:01:20.157Z,44.04
2023-03-06T13:04:08.777Z,44.38
2023-03-06T13:07:04.519Z,42.43
2023-03-06T13:09:42.912Z,41.48
2023-03-06T13:12:30.815Z,42.03
2023-03-06T13:15:03.028Z,40.84
2023-03-06T13:17:38.897Z,39.75
2023-03-06T13:20:36.360Z,38.77
2023-03-06T13:23:36.262Z,37.95
2023-03-06T13:26:07.544Z,37.34
2023-03-06T13:28:49.446Z,37.35
2023-03-06T13:31:30.196Z,37.77
2023-03-06T13:34:02.636Z,37.46
2023-03-06T13:36:39.715Z,35.78
2023-03-06T13:39:16.907Z,34.98
2023-03-06T13:42:01.841Z,35.05
2023-03-06T13:44:52.024Z,36.34
2023-03-06T13:47:48.871Z,35.71
2023-03-06T13:50:41.903Z,34.66
2023-03-06T13:53:44.211Z,34.63
2023-03-06T13:56:46.704Z,34.56
2023-03-06T14:00:03.047Z,36.79
2023-03-06T14:03:08.510Z,37.20
2023-03-06T14:05:47.735Z,35.88
2023-03-06T14:08:20.337Z,36.42
2023-03-06T14:11:01.012Z,35.91
2023-03-06T14:13:47.261Z,36.34
2023-03-06T14:16:29.196Z,35.79
2023-03-06T14:19:04.256Z,36.40
2023-03-06T14:21:38.025Z,36.16
2023-03-06T14:24:08.837Z,36.69
2023-03-06T14:26:44.323Z,36.07
2023-03-06T14:29:24.491Z,35.55
2023-03-06T14:31:58.697Z,35.69
2023-03-06T14:34:30.948Z,34.21
2023-03-06T14:37:05.581Z,32.91
2023-03-06T14:39:38.946Z,32.48
2023-03-06T14:42:18.988Z,32.65
2023-03-06T14:44:49.573Z,33.26
2023-03-06T14:47:32.406Z,32.25
2023-03-06T14:50:30.248Z,32.66
2023-03-06T14:53:04.328Z,33.83
2023-03-06T14:55:51.770Z,32.93
2023-03-06T14:58:25.789Z,34.18
2023-03-06T15:00:58.750Z,35.02
2023-03-06T15:03:44.476Z,36.41
2023-03-06T15:06:21.150Z,36.44
2023-03-06T15:09:07.589Z,36.92
2023-03-06T15:11:54.766Z,37.51
2023-03-06T15:14:33.876Z,38.21
2023-03-06T15:17:26.481Z,38.70
2023-03-06T15:20:00.697Z,37.88
2023-03-06T15:22:33.652Z,36.43
2023-03-06T15:25:31.937Z,37.05
2023-03-06T15:28:04.320Z,35.96
2023-03-06T15:30:36.634Z,35.94
2023-03-06T15:33:22.926Z,35.30
2023-03-06T15:36:01.999Z,36.38
2023-03-06T15:38:40.254Z,36.81
2023-03-06T15:41:24.459Z,37.12
2023-03-06T15:43:54.597Z,38.01
2023-03-06T15:46:24.718Z,37.84
2023-03-06T15:48:56.405Z,38.20
2023-03-06T15:51:29.458Z,38.40
2023-03-06T15:54:11.243Z,38.64
2023-03-06T15:56:43.558Z,39.46
2023-03-06T15:59:19.868Z,40.05
2023-03-06T16:01:50.173Z,40.09
2023-03-06T16:04:20.446Z,40.53
2023-03-06T16:06:53.312Z,41.26
2023-03-06T16:09:25.693Z,40.76
2023-03-06T16:11:55.850Z,40.98
2023-03-06T16:14:26.364Z,41.19
2023-03-06T16:16:58.074Z,41.42
2023-03-06T16:19:29.047Z,41.71
2023-03-06T16:22:01.916Z,42.06
2023-03-06T16:24:32.476Z,42.03
2023-03-06T16:27:04.065Z,42.02
2023-03-06T16:29:34.265Z,42.24
2023-03-06T16:32:04.708Z,42.43
2023-03-06T16:34:35.010Z,42.48
2023-03-06T16:37:09.368Z,42.74
2023-03-06T16:39:39.481Z,43.04
2023-03-06T16:42:10.129Z,43.05
2023-03-06T16:44:40.226Z,43.12
2023-03-06T16:47:14.188Z,43.16
2023-03-06T16:49:57.957Z,43.45
2023-03-06T16:52:30.945Z,43.52
2023-03-06T16:55:01.258Z,43.51
2023-03-06T16:57:35.728Z,43.74
2023-03-06T17:00:09.567Z,44.11
2023-03-06T17:02:41.386Z,44.51
2023-03-06T17:05:13.914Z,44.63
2023-03-06T17:07:46.857Z,44.91
2023-03-06T17:11:50.683Z,45.24
2023-03-06T17:14:23.665Z,45.40
2023-03-06T17:16:53.701Z,45.73
2023-03-06T17:19:23.731Z,45.51
2023-03-06T17:21:53.803Z,46.01
2023-03-06T17:24:23.861Z,46.16
2023-03-06T17:26:56.565Z,47.10
2023-03-06T17:29:26.564Z,48.57
2023-03-06T17:31:57.050Z,49.72
2023-03-06T17:34:27.383Z,49.72
2023-03-06T17:36:57.583Z,50.97
2023-03-06T17:39:27.795Z,51.03
2023-03-06T17:42:00.418Z,51.55
2023-03-06T17:44:30.756Z,52.28
2023-03-06T17:47:00.834Z,52.50
2023-03-06T17:49:31.139Z,53.18
2023-03-06T17:52:04.516Z,53.80
2023-03-06T17:54:35.241Z,54.29
2023-03-06T17:57:08.148Z,54.65
2023-03-06T17:59:38.250Z,54.70
2023-03-06T18:02:08.868Z,55.02
2023-03-06T18:04:38.949Z,55.67
2023-03-06T18:07:09.697Z,56.43
2023-03-06T18:09:40.027Z,56.79
2023-03-06T18:12:12.970Z,57.24
2023-03-06T18:14:42.998Z,57.27
2023-03-06T18:17:12.965Z,57.08
2023-03-06T18:19:43.090Z,56.73
2023-03-06T18:22:13.454Z,56.70
2023-03-06T18:24:43.589Z,56.96
2023-03-06T18:27:16.181Z,56.66
2023-03-06T18:29:46.702Z,56.77
2023-03-06T18:32:17.301Z,57.48
2023-03-06T18:34:47.586Z,57.48
2023-03-06T18:37:17.760Z,58.00
2023-03-06T18:39:47.918Z,58.14
2023-03-06T18:42:20.513Z,58.12
2023-03-06T18:44:50.575Z,57.68
2023-03-06T18:47:20.631Z,57.56
2023-03-06T18:49:50.734Z,57.62
2023-03-06T18:52:23.754Z,57.42
2023-03-06T18:54:53.847Z,57.31
2023-03-06T18:57:28.730Z,57.21
2023-03-06T19:00:00.532Z,57.45
2023-03-06T19:02:30.661Z,57.59
2023-03-06T19:05:00.626Z,57.57
2023-03-06T19:07:33.514Z,57.79
2023-03-06T19:10:03.517Z,58.16
2023-03-06T19:12:39.284Z,58.33
2023-03-06T19:15:10.898Z,58.37
2023-03-06T19:17:41.001Z,58.51
2023-03-06T19:20:12.682Z,58.25
2023-03-06T19:22:45.596Z,58.74
2023-03-06T19:25:15.533Z,59.09
2023-03-06T19:27:48.830Z,59.81
2023-03-06T19:30:25.460Z,59.69
2023-03-06T19:32:56.444Z,59.42
2023-03-06T19:35:28.633Z,59.48
2023-03-06T19:37:58.813Z,59.59
2023-03-06T19:40:28.823Z,60.09
2023-03-06T19:43:01.397Z,60.34
2023-03-06T19:45:31.423Z,60.66
2023-03-06T19:48:03.383Z,60.26
2023-03-06T19:50:33.595Z,60.16
2023-03-06T19:53:07.958Z,60.25
2023-03-06T19:55:38.005Z,60.25
2023-03-06T19:58:11.458Z,60.04
2023-03-06T20:00:42.018Z,59.37
2023-03-06T20:03:12.214Z,59.71
2023-03-06T20:05:48.743Z,59.71
2023-03-06T20:08:18.785Z,59.38
2023-03-06T20:10:48.847Z,59.21
2023-03-06T20:13:21.569Z,58.88
2023-03-06T20:15:51.792Z,59.06
2023-03-06T20:18:24.960Z,59.27
2023-03-06T20:21:06.307Z,59.69
2023-03-06T20:23:36.735Z,59.54
2023-03-06T20:26:09.508Z,59.69
2023-03-06T20:28:45.838Z,60.12
2023-03-06T20:31:19.189Z,60.36
2023-03-06T20:33:50.876Z,60.34
2023-03-06T20:36:23.669Z,60.87
2023-03-06T20:38:54.348Z,61.18
2023-03-06T20:41:26.461Z,61.51
2023-03-06T20:44:00.761Z,61.93
2023-03-06T20:46:45.748Z,62.35
2023-03-06T20:49:16.323Z,62.35
2023-03-06T20:51:46.787Z,62.67
2023-03-06T20:54:19.241Z,62.58
2023-03-06T20:56:51.820Z,62.54
2023-03-06T20:59:24.425Z,62.47
2023-03-06T21:01:54.416Z,63.03
2023-03-06T21:04:24.480Z,63.31
2023-03-06T21:06:56.169Z,63.33
2023-03-06T21:09:26.100Z,63.47
2023-03-06T21:11:56.094Z,63.65
2023-03-06T21:14:28.833Z,63.35
2023-03-06T21:16:59.289Z,63.01
2023-03-06T21:19:29.350Z,62.65
2023-03-06T21:21:59.286Z,62.63
2023-03-06T21:24:29.298Z,62.72
2023-03-06T21:26:59.266Z,62.56
2023-03-06T21:29:31.913Z,62.87
2023-03-06T21:32:01.971Z,62.69
2023-03-06T21:34:32.073Z,62.58
2023-03-06T21:37:02.127Z,63.02
2023-03-06T21:39:32.303Z,63.17
2023-03-06T21:42:02.342Z,63.38
2023-03-06T21:44:34.952Z,63.61
2023-03-06T21:47:04.893Z,63.63
2023-03-06T21:49:35.024Z,63.76
2023-03-06T21:52:04.977Z,63.89
2023-03-06T21:54:34.999Z,63.76
2023-03-06T21:57:05.125Z,63.71
2023-03-06T21:59:37.671Z,63.51
2023-03-06T22:02:08.122Z,63.85
2023-03-06T22:04:38.321Z,63.62
2023-03-06T22:07:08.553Z,63.39
2023-03-06T22:09:38.567Z,63.31
2023-03-06T22:12:08.821Z,63.41
2023-03-06T22:14:41.716Z,64.02
2023-03-06T22:17:11.720Z,64.22
2023-03-06T22:19:41.722Z,64.35
2023-03-06T22:22:11.987Z,64.18
2023-03-06T22:24:42.098Z,64.30
2023-03-06T22:27:12.309Z,64.45
2023-03-06T22:29:45.100Z,64.68
2023-03-06T22:32:15.846Z,64.83
2023-03-06T22:34:45.948Z,64.68
2023-03-06T22:37:16.074Z,64.65
2023-03-06T22:39:46.376Z,64.76
2023-03-06T22:42:16.636Z,64.23
2023-03-06T22:44:49.469Z,64.26
2023-03-06T22:47:19.557Z,64.09
2023-03-06T22:49:49.545Z,63.94
2023-03-06T22:52:22.429Z,63.84
2023-03-06T22:54:52.431Z,63.92
2023-03-06T22:57:22.389Z,63.87
2023-03-06T22:59:55.012Z,64.03
2023-03-06T23:02:25.047Z,64.05
2023-03-06T23:04:55.002Z,63.87
2023-03-06T23:07:24.970Z,63.89
2023-03-06T23:10:03.701Z,63.86
2023-03-06T23:12:54.771Z,63.78
2023-03-06T23:15:46.060Z,63.88
2023-03-06T23:18:35.333Z,63.63
2023-03-06T23:21:24.748Z,63.28
2023-03-06T23:24:13.604Z,63.47
2023-03-06T23:26:43.600Z,63.52
2023-03-06T23:29:13.653Z,63.78
2023-03-06T23:31:46.340Z,63.84
2023-03-06T23:34:16.307Z,63.95
2023-03-06T23:36:46.246Z,64.50
2023-03-06T23:39:16.817Z,64.65
2023-03-06T23:41:46.950Z,64.83
2023-03-06T23:44:16.942Z,65.03
2023-03-06T23:46:49.506Z,64.92
2023-03-06T23:49:21.888Z,64.67
2023-03-06T23:51:51.907Z,64.89
2023-03-06T23:54:21.905Z,64.97
2023-03-06T23:56:51.921Z,64.82
2023-03-06T23:59:21.932Z,64.99
